Hohebank — V2CX3 — position and weather

sailwx.info

Track history (hours):
 
Tides and Currents Weather Stations Pressure Air Temp Water Temp Dewpoint Dewpoint Depression Visibility Wind Speed Wind Dir Waves Ship Positions

Hohebank

Last reported at 2018-Feb-18 13:47 UTC. Time now 2018-Feb-19 00:23 UTC.
Position N 11°14' W 074°39'.

Length 139 m; draft 7.6 m.

Type: Ship. MMSI: 305134000.

Date/timePositionNaut miles runAvg speedWind from/ knotsBaromVisibWave heightAir tempDewpointWater temp
2018-Feb-18 13:47N 11°14' W 074°39'413.4
2018-Feb-18 13:29N 11°12' W 074°43'713.6
2018-Feb-18 13:00N 11°10' W 074°49'5 8.8
2018-Feb-18 12:30N 11°07' W 074°52'5 9.7
2018-Feb-18 12:00N 11°03' W 074°50'612.2
2018-Feb-18 11:30N 10°59' W 074°45'1 1.3
2018-Feb-18 11:00N 10°58' W 074°46'0 0.0
2018-Feb-18 10:30N 10°58' W 074°46'0 0.0
2018-Feb-18 10:00N 10°58' W 074°46'0 0.0
2018-Feb-18 09:30N 10°58' W 074°46'0 0.0
2018-Feb-18 09:00N 10°58' W 074°46'0 0.0
2018-Feb-18 08:30N 10°58' W 074°46'0 0.0
2018-Feb-18 08:00N 10°58' W 074°46'0 0.0
2018-Feb-18 07:30N 10°58' W 074°46'0 0.0
2018-Feb-18 07:00N 10°58' W 074°46'0 0.0
2018-Feb-18 06:30N 10°58' W 074°46'0 0.0
2018-Feb-18 06:00N 10°58' W 074°46'0 0.0
2018-Feb-18 05:30N 10°58' W 074°46'0 0.0
2018-Feb-18 05:00N 10°58' W 074°46'0 0.0
2018-Feb-18 04:30N 10°58' W 074°46'0 0.0
2018-Feb-18 04:00N 10°58' W 074°46'0 0.0
2018-Feb-18 03:30N 10°58' W 074°46'0 0.0
2018-Feb-18 03:00N 10°58' W 074°46'0 0.0
2018-Feb-18 02:30N 10°58' W 074°46'0 0.0
2018-Feb-18 02:00N 10°58' W 074°46'0 0.0
2018-Feb-18 01:30N 10°58' W 074°46'0 0.0
2018-Feb-18 01:00N 10°58' W 074°46'0 0.0
2018-Feb-18 00:30N 10°58' W 074°46'0 0.0
2018-Feb-18 00:00N 10°58' W 074°46'0 0.0
2018-Feb-17 23:30N 10°58' W 074°46'0 0.0
2018-Feb-17 23:00N 10°58' W 074°46'0 0.0
2018-Feb-17 22:30N 10°58' W 074°46'0 0.0
2018-Feb-17 22:00N 10°58' W 074°46'0 0.0
2018-Feb-17 21:30N 10°58' W 074°46'0 0.0
2018-Feb-17 21:00N 10°58' W 074°46'0 0.0
2018-Feb-17 20:27N 10°58' W 074°46'0 0.0
2018-Feb-17 20:00N 10°58' W 074°46'0 0.0
2018-Feb-17 19:30N 10°58' W 074°46'0 0.0
2018-Feb-17 19:00N 10°58' W 074°46'0 0.0
2018-Feb-17 18:30N 10°58' W 074°46'0 0.0
2018-Feb-17 18:00N 10°58' W 074°46'0 0.0
2018-Feb-17 17:30N 10°58' W 074°46'0 0.0
2018-Feb-17 17:00N 10°58' W 074°46'0 0.0
2018-Feb-17 16:30N 10°58' W 074°46'0 0.1
2018-Feb-17 16:00N 10°58' W 074°46'3 6.3
2018-Feb-17 15:30N 11°01' W 074°47'510.4
2018-Feb-17 14:59N 11°05' W 074°51'3 6.0
2018-Feb-17 14:30N 11°06' W 074°53'4 8.0
2018-Feb-17 14:00N 11°06' W 074°57'610.5
2018-Feb-17 13:28N 11°05' W 075°03'50 6.4
2018-Feb-17 05:39N 10°24' W 075°32'0 0.0
2018-Feb-17 05:27N 10°24' W 075°32'0 0.0
2018-Feb-17 04:51N 10°24' W 075°32'0 0.0
2018-Feb-17 04:30N 10°24' W 075°32'0 0.0
2018-Feb-17 04:00N 10°24' W 075°32'0 0.0
2018-Feb-17 03:27N 10°24' W 075°32'0 0.0
2018-Feb-17 03:00N 10°24' W 075°32'0 0.0
2018-Feb-17 00:00N 10°24' W 075°32'0 0.0
2018-Feb-16 23:24N 10°24' W 075°32'0 0.0
2018-Feb-16 22:27N 10°24' W 075°32'0 0.0
2018-Feb-16 21:54N 10°24' W 075°32'0 0.0
2018-Feb-16 21:27N 10°24' W 075°32'0 0.0
2018-Feb-16 15:24N 10°24' W 075°32'0 0.0
2018-Feb-16 15:00N 10°24' W 075°32'0 0.0
2018-Feb-16 14:24N 10°24' W 075°32'0 0.0
2018-Feb-16 13:39N 10°24' W 075°32'0 0.0
2018-Feb-16 13:21N 10°24' W 075°32'0 0.0
2018-Feb-16 12:54N 10°24' W 075°32'0 0.0
2018-Feb-16 11:30N 10°24' W 075°32'0 0.0
2018-Feb-15 16:45N 10°24' W 075°32'0 0.0
2018-Feb-15 16:15N 10°24' W 075°32'0 0.0
2018-Feb-15 15:57N 10°24' W 075°32'0 0.0
2018-Feb-15 15:27N 10°24' W 075°32'0 0.0
2018-Feb-15 15:00N 10°24' W 075°32'0 0.0
2018-Feb-15 14:27N 10°24' W 075°32'0 0.0
2018-Feb-15 13:57N 10°24' W 075°32'0 0.0
2018-Feb-15 13:27N 10°24' W 075°32'0 0.0
2018-Feb-15 12:57N 10°24' W 075°32'0 0.0
2018-Feb-15 12:30N 10°24' W 075°32'0 0.0
2018-Feb-15 11:57N 10°24' W 075°32'0 0.0
2018-Feb-15 11:27N 10°24' W 075°32'0 0.0
2018-Feb-15 10:57N 10°24' W 075°32'0 0.5
2018-Feb-15 10:30N 10°24' W 075°32'  
2018-Feb-10 11:13N 25°26' W 079°37'313.8
2018-Feb-10 11:00N 25°29' W 079°38'713.6
2018-Feb-10 10:30N 25°36' W 079°39'713.6
2018-Feb-10 10:00N 25°42' W 079°40'713.3
2018-Feb-10 09:30N 25°49' W 079°42'713.0
2018-Feb-10 09:00N 25°54' W 079°47'713.8
2018-Feb-10 08:30N 25°58' W 079°53'612.1
2018-Feb-10 08:00N 26°02' W 079°58'611.9
2018-Feb-10 07:31N 26°04' W 080°04'3 6.3
2018-Feb-10 07:01N 26°05' W 080°07'0 0.0
2018-Feb-10 06:30N 26°05' W 080°07'0 0.0
2018-Feb-10 06:00N 26°05' W 080°07'0 0.0
2018-Feb-10 05:30N 26°05' W 080°07'0 0.0
2018-Feb-10 05:00N 26°05' W 080°07'0 0.0
2018-Feb-10 04:30N 26°05' W 080°07'0 0.0
2018-Feb-10 04:00N 26°05' W 080°07'0 0.0
2018-Feb-10 03:30N 26°05' W 080°07'0 0.0
2018-Feb-10 03:00N 26°05' W 080°07'0 0.0
2018-Feb-10 02:31N 26°05' W 080°07'0 0.0
2018-Feb-10 02:00N 26°05' W 080°07'0 0.0
2018-Feb-10 01:30N 26°05' W 080°07'0 0.0
2018-Feb-10 01:00N 26°05' W 080°07'0 0.0
2018-Feb-10 00:30N 26°05' W 080°07'0 0.0
2018-Feb-10 00:01N 26°05' W 080°07'0 0.0
2018-Feb-09 23:30N 26°05' W 080°07'0 0.0
2018-Feb-09 23:01N 26°05' W 080°07'0 0.0
2018-Feb-09 22:45N 26°05' W 080°07'0 0.0
2018-Feb-09 22:30N 26°05' W 080°07'0 0.0
2018-Feb-09 22:00N 26°05' W 080°07'0 0.4
2018-Feb-09 21:30N 26°05' W 080°07'0 0.0
2018-Feb-09 21:00N 26°05' W 080°07'0 0.0
2018-Feb-09 20:30N 26°05' W 080°07'0 0.0
2018-Feb-09 20:00N 26°05' W 080°07'0 0.0
2018-Feb-09 19:00N 26°05' W 080°07'0 0.0
2018-Feb-09 18:00N 26°05' W 080°07'0 0.0
2018-Feb-09 17:31N 26°05' W 080°07'0 0.0
2018-Feb-09 17:00N 26°05' W 080°07'0 0.0
2018-Feb-09 16:30N 26°05' W 080°07'0 0.0
2018-Feb-09 15:30N 26°05' W 080°07'0 0.0
2018-Feb-09 15:00N 26°05' W 080°07'0 0.0
2018-Feb-09 14:30N 26°05' W 080°07'0 0.0
2018-Feb-09 14:01N 26°05' W 080°07'0 0.0
2018-Feb-09 12:30N 26°05' W 080°07'0 0.0
2018-Feb-09 11:30N 26°05' W 080°07'0 0.0
2018-Feb-09 11:00N 26°05' W 080°07'0 0.0
2018-Feb-09 10:30N 26°05' W 080°07'0 0.0
2018-Feb-09 10:00N 26°05' W 080°07'0 0.0
2018-Feb-09 09:30N 26°05' W 080°07'0 0.0
2018-Feb-09 09:01N 26°05' W 080°07'0 0.0
2018-Feb-09 08:30N 26°05' W 080°07'0 0.2
2018-Feb-09 07:30N 26°05' W 080°07'0 0.0
2018-Feb-09 06:30N 26°05' W 080°07'0 0.0
2018-Feb-09 06:00N 26°05' W 080°07'0 0.0
2018-Feb-09 05:30N 26°05' W 080°07'0 0.0
2018-Feb-09 05:00N 26°05' W 080°07'0 0.0
2018-Feb-09 04:30N 26°05' W 080°07'0 0.0
2018-Feb-09 04:00N 26°05' W 080°07'0 0.0
2018-Feb-09 03:30N 26°05' W 080°07'0 0.0
2018-Feb-09 03:00N 26°05' W 080°07'0 0.0
2018-Feb-09 02:31N 26°05' W 080°07'0 0.0
2018-Feb-09 02:00N 26°05' W 080°07'0 0.0
2018-Feb-09 01:31N 26°05' W 080°07'0 0.0
2018-Feb-09 01:00N 26°05' W 080°07'2510.0
2018-Feb-08 22:30N 25°52' W 079°44'714.8
2018-Feb-08 22:00N 25°45' W 079°41'  
Track history (hours):
 
Tides and Currents Weather Stations Pressure Air Temp Water Temp Dewpoint Dewpoint Depression Visibility Wind Speed Wind Dir Waves Ship Positions

Hohebank

Last reported at 2018-Feb-18 13:47 UTC. Time now 2018-Feb-19 00:23 UTC.
Position N 11°14' W 074°39'.

Length 139 m; draft 7.6 m.

Type: Ship. MMSI: 305134000.

Date/timePositionNaut miles runAvg speedWind from/ knotsBaromVisibWave heightAir tempDewpointWater temp
2018-Feb-18 13:47N 11°14' W 074°39'413.4
2018-Feb-18 13:29N 11°12' W 074°43'713.6
2018-Feb-18 13:00N 11°10' W 074°49'5 8.8
2018-Feb-18 12:30N 11°07' W 074°52'5 9.7
2018-Feb-18 12:00N 11°03' W 074°50'612.2
2018-Feb-18 11:30N 10°59' W 074°45'1 1.3
2018-Feb-18 11:00N 10°58' W 074°46'0 0.0
2018-Feb-18 10:30N 10°58' W 074°46'0 0.0
2018-Feb-18 10:00N 10°58' W 074°46'0 0.0
2018-Feb-18 09:30N 10°58' W 074°46'0 0.0
2018-Feb-18 09:00N 10°58' W 074°46'0 0.0
2018-Feb-18 08:30N 10°58' W 074°46'0 0.0
2018-Feb-18 08:00N 10°58' W 074°46'0 0.0
2018-Feb-18 07:30N 10°58' W 074°46'0 0.0
2018-Feb-18 07:00N 10°58' W 074°46'0 0.0
2018-Feb-18 06:30N 10°58' W 074°46'0 0.0
2018-Feb-18 06:00N 10°58' W 074°46'0 0.0
2018-Feb-18 05:30N 10°58' W 074°46'0 0.0
2018-Feb-18 05:00N 10°58' W 074°46'0 0.0
2018-Feb-18 04:30N 10°58' W 074°46'0 0.0
2018-Feb-18 04:00N 10°58' W 074°46'0 0.0
2018-Feb-18 03:30N 10°58' W 074°46'0 0.0
2018-Feb-18 03:00N 10°58' W 074°46'0 0.0
2018-Feb-18 02:30N 10°58' W 074°46'0 0.0
2018-Feb-18 02:00N 10°58' W 074°46'0 0.0
2018-Feb-18 01:30N 10°58' W 074°46'0 0.0
2018-Feb-18 01:00N 10°58' W 074°46'0 0.0
2018-Feb-18 00:30N 10°58' W 074°46'0 0.0
2018-Feb-18 00:00N 10°58' W 074°46'0 0.0
2018-Feb-17 23:30N 10°58' W 074°46'0 0.0
2018-Feb-17 23:00N 10°58' W 074°46'0 0.0
2018-Feb-17 22:30N 10°58' W 074°46'0 0.0
2018-Feb-17 22:00N 10°58' W 074°46'0 0.0
2018-Feb-17 21:30N 10°58' W 074°46'0 0.0
2018-Feb-17 21:00N 10°58' W 074°46'0 0.0
2018-Feb-17 20:27N 10°58' W 074°46'0 0.0
2018-Feb-17 20:00N 10°58' W 074°46'0 0.0
2018-Feb-17 19:30N 10°58' W 074°46'0 0.0
2018-Feb-17 19:00N 10°58' W 074°46'0 0.0
2018-Feb-17 18:30N 10°58' W 074°46'0 0.0
2018-Feb-17 18:00N 10°58' W 074°46'0 0.0
2018-Feb-17 17:30N 10°58' W 074°46'0 0.0
2018-Feb-17 17:00N 10°58' W 074°46'0 0.0
2018-Feb-17 16:30N 10°58' W 074°46'0 0.1
2018-Feb-17 16:00N 10°58' W 074°46'3 6.3
2018-Feb-17 15:30N 11°01' W 074°47'510.4
2018-Feb-17 14:59N 11°05' W 074°51'3 6.0
2018-Feb-17 14:30N 11°06' W 074°53'4 8.0
2018-Feb-17 14:00N 11°06' W 074°57'610.5
2018-Feb-17 13:28N 11°05' W 075°03'50 6.4
2018-Feb-17 05:39N 10°24' W 075°32'0 0.0
2018-Feb-17 05:27N 10°24' W 075°32'0 0.0
2018-Feb-17 04:51N 10°24' W 075°32'0 0.0
2018-Feb-17 04:30N 10°24' W 075°32'0 0.0
2018-Feb-17 04:00N 10°24' W 075°32'0 0.0
2018-Feb-17 03:27N 10°24' W 075°32'0 0.0
2018-Feb-17 03:00N 10°24' W 075°32'0 0.0
2018-Feb-17 00:00N 10°24' W 075°32'0 0.0
2018-Feb-16 23:24N 10°24' W 075°32'0 0.0
2018-Feb-16 22:27N 10°24' W 075°32'0 0.0
2018-Feb-16 21:54N 10°24' W 075°32'0 0.0
2018-Feb-16 21:27N 10°24' W 075°32'0 0.0
2018-Feb-16 15:24N 10°24' W 075°32'0 0.0
2018-Feb-16 15:00N 10°24' W 075°32'0 0.0
2018-Feb-16 14:24N 10°24' W 075°32'0 0.0
2018-Feb-16 13:39N 10°24' W 075°32'0 0.0
2018-Feb-16 13:21N 10°24' W 075°32'0 0.0
2018-Feb-16 12:54N 10°24' W 075°32'0 0.0
2018-Feb-16 11:30N 10°24' W 075°32'0 0.0
2018-Feb-15 16:45N 10°24' W 075°32'0 0.0
2018-Feb-15 16:15N 10°24' W 075°32'0 0.0
2018-Feb-15 15:57N 10°24' W 075°32'0 0.0
2018-Feb-15 15:27N 10°24' W 075°32'0 0.0
2018-Feb-15 15:00N 10°24' W 075°32'0 0.0
2018-Feb-15 14:27N 10°24' W 075°32'0 0.0
2018-Feb-15 13:57N 10°24' W 075°32'0 0.0
2018-Feb-15 13:27N 10°24' W 075°32'0 0.0
2018-Feb-15 12:57N 10°24' W 075°32'0 0.0
2018-Feb-15 12:30N 10°24' W 075°32'0 0.0
2018-Feb-15 11:57N 10°24' W 075°32'0 0.0
2018-Feb-15 11:27N 10°24' W 075°32'0 0.0
2018-Feb-15 10:57N 10°24' W 075°32'0 0.5
2018-Feb-15 10:30N 10°24' W 075°32'  
2018-Feb-10 11:13N 25°26' W 079°37'313.8
2018-Feb-10 11:00N 25°29' W 079°38'713.6
2018-Feb-10 10:30N 25°36' W 079°39'713.6
2018-Feb-10 10:00N 25°42' W 079°40'713.3
2018-Feb-10 09:30N 25°49' W 079°42'713.0
2018-Feb-10 09:00N 25°54' W 079°47'713.8
2018-Feb-10 08:30N 25°58' W 079°53'612.1
2018-Feb-10 08:00N 26°02' W 079°58'611.9
2018-Feb-10 07:31N 26°04' W 080°04'3 6.3
2018-Feb-10 07:01N 26°05' W 080°07'0 0.0
2018-Feb-10 06:30N 26°05' W 080°07'0 0.0
2018-Feb-10 06:00N 26°05' W 080°07'0 0.0
2018-Feb-10 05:30N 26°05' W 080°07'0 0.0
2018-Feb-10 05:00N 26°05' W 080°07'0 0.0
2018-Feb-10 04:30N 26°05' W 080°07'0 0.0
2018-Feb-10 04:00N 26°05' W 080°07'0 0.0
2018-Feb-10 03:30N 26°05' W 080°07'0 0.0
2018-Feb-10 03:00N 26°05' W 080°07'0 0.0
2018-Feb-10 02:31N 26°05' W 080°07'0 0.0
2018-Feb-10 02:00N 26°05' W 080°07'0 0.0
2018-Feb-10 01:30N 26°05' W 080°07'0 0.0
2018-Feb-10 01:00N 26°05' W 080°07'0 0.0
2018-Feb-10 00:30N 26°05' W 080°07'0 0.0
2018-Feb-10 00:01N 26°05' W 080°07'0 0.0
2018-Feb-09 23:30N 26°05' W 080°07'0 0.0
2018-Feb-09 23:01N 26°05' W 080°07'0 0.0
2018-Feb-09 22:45N 26°05' W 080°07'0 0.0
2018-Feb-09 22:30N 26°05' W 080°07'0 0.0
2018-Feb-09 22:00N 26°05' W 080°07'0 0.4
2018-Feb-09 21:30N 26°05' W 080°07'0 0.0
2018-Feb-09 21:00N 26°05' W 080°07'0 0.0
2018-Feb-09 20:30N 26°05' W 080°07'0 0.0
2018-Feb-09 20:00N 26°05' W 080°07'0 0.0
2018-Feb-09 19:00N 26°05' W 080°07'0 0.0
2018-Feb-09 18:00N 26°05' W 080°07'0 0.0
2018-Feb-09 17:31N 26°05' W 080°07'0 0.0
2018-Feb-09 17:00N 26°05' W 080°07'0 0.0
2018-Feb-09 16:30N 26°05' W 080°07'0 0.0
2018-Feb-09 15:30N 26°05' W 080°07'0 0.0
2018-Feb-09 15:00N 26°05' W 080°07'0 0.0
2018-Feb-09 14:30N 26°05' W 080°07'0 0.0
2018-Feb-09 14:01N 26°05' W 080°07'0 0.0
2018-Feb-09 12:30N 26°05' W 080°07'0 0.0
2018-Feb-09 11:30N 26°05' W 080°07'0 0.0
2018-Feb-09 11:00N 26°05' W 080°07'0 0.0
2018-Feb-09 10:30N 26°05' W 080°07'0 0.0
2018-Feb-09 10:00N 26°05' W 080°07'0 0.0
2018-Feb-09 09:30N 26°05' W 080°07'0 0.0
2018-Feb-09 09:01N 26°05' W 080°07'0 0.0
2018-Feb-09 08:30N 26°05' W 080°07'0 0.2
2018-Feb-09 07:30N 26°05' W 080°07'0 0.0
2018-Feb-09 06:30N 26°05' W 080°07'0 0.0
2018-Feb-09 06:00N 26°05' W 080°07'0 0.0
2018-Feb-09 05:30N 26°05' W 080°07'0 0.0
2018-Feb-09 05:00N 26°05' W 080°07'0 0.0
2018-Feb-09 04:30N 26°05' W 080°07'0 0.0
2018-Feb-09 04:00N 26°05' W 080°07'0 0.0
2018-Feb-09 03:30N 26°05' W 080°07'0 0.0
2018-Feb-09 03:00N 26°05' W 080°07'0 0.0
2018-Feb-09 02:31N 26°05' W 080°07'0 0.0
2018-Feb-09 02:00N 26°05' W 080°07'0 0.0
2018-Feb-09 01:31N 26°05' W 080°07'0 0.0
2018-Feb-09 01:00N 26°05' W 080°07'2510.0
2018-Feb-08 22:30N 25°52' W 079°44'714.8
2018-Feb-08 22:00N 25°45' W 079°41'  

Dump ship's entire track history